createdAt,value
2018-03-19T00:01:32.920Z,70.40
2018-03-19T00:04:06.313Z,70.50
2018-03-19T00:06:39.140Z,70.40
2018-03-19T00:09:12.489Z,70.70
2018-03-19T00:11:45.285Z,70.70
2018-03-19T00:14:18.034Z,70.50
2018-03-19T00:16:52.020Z,71.00
2018-03-19T00:19:24.838Z,70.70
2018-03-19T00:21:58.200Z,71.20
2018-03-19T00:24:30.637Z,70.70
2018-03-19T00:27:03.259Z,70.50
2018-03-19T00:29:36.389Z,69.90
2018-03-19T00:32:09.396Z,69.90
2018-03-19T00:34:41.949Z,70.00
2018-03-19T00:37:14.395Z,69.80
2018-03-19T00:39:46.972Z,70.20
2018-03-19T00:42:20.353Z,69.90
2018-03-19T00:44:52.992Z,69.80
2018-03-19T00:47:25.648Z,69.50
2018-03-19T00:49:58.961Z,69.00
2018-03-19T00:52:32.345Z,69.50
2018-03-19T00:55:04.963Z,69.20
2018-03-19T00:57:37.567Z,70.20
2018-03-19T01:00:11.026Z,70.30
2018-03-19T01:02:44.558Z,70.70
2018-03-19T01:05:17.594Z,69.70
2018-03-19T01:07:50.488Z,69.40
2018-03-19T01:10:23.383Z,69.40
2018-03-19T01:12:56.302Z,68.70
2018-03-19T01:15:28.716Z,69.20
2018-03-19T01:18:02.032Z,69.20
2018-03-19T01:20:34.727Z,69.30
2018-03-19T01:23:08.085Z,69.50
2018-03-19T01:25:40.586Z,69.00
2018-03-19T01:28:13.846Z,69.00
2018-03-19T01:30:46.460Z,69.50
2018-03-19T01:33:20.527Z,69.30
2018-03-19T01:35:53.199Z,69.50
2018-03-19T01:38:26.570Z,69.60
2018-03-19T01:40:59.299Z,69.30
2018-03-19T01:43:33.431Z,69.30
2018-03-19T01:46:06.182Z,69.30
2018-03-19T01:48:38.581Z,69.00
2018-03-19T01:51:11.119Z,69.10
2018-03-19T01:53:44.278Z,69.20
2018-03-19T01:56:16.712Z,68.60
2018-03-19T01:58:50.102Z,69.20
2018-03-19T02:01:23.035Z,68.90
2018-03-19T02:03:57.022Z,69.50
2018-03-19T02:06:30.045Z,69.60
2018-03-19T02:09:03.242Z,67.90
2018-03-19T02:11:36.806Z,68.30
2018-03-19T02:14:10.608Z,68.20
2018-03-19T02:16:43.161Z,68.20
2018-03-19T02:19:16.359Z,69.60
2018-03-19T02:21:49.166Z,68.70
2018-03-19T02:24:22.536Z,69.30
2018-03-19T02:26:55.041Z,68.70
2018-03-19T02:29:28.352Z,68.10
2018-03-19T02:32:02.523Z,70.10
2018-03-19T02:34:36.179Z,69.20
2018-03-19T02:37:09.001Z,69.10
2018-03-19T02:39:42.348Z,68.80
2018-03-19T02:42:14.947Z,68.80
2018-03-19T02:44:47.432Z,68.00
2018-03-19T02:47:20.750Z,67.40
2018-03-19T02:49:53.357Z,67.40
2018-03-19T02:52:26.714Z,67.00
2018-03-19T02:54:59.247Z,67.00
2018-03-19T02:57:31.693Z,66.40
2018-03-19T03:00:05.078Z,66.70
2018-03-19T03:02:37.503Z,67.30
2018-03-19T03:05:10.638Z,66.90
2018-03-19T03:07:43.340Z,66.70
2018-03-19T03:10:17.245Z,66.60
2018-03-19T03:12:50.812Z,66.40
2018-03-19T03:15:24.251Z,67.20
2018-03-19T03:17:56.843Z,66.80
2018-03-19T03:20:30.055Z,67.30
2018-03-19T03:23:02.491Z,67.40
2018-03-19T03:25:35.123Z,67.50
2018-03-19T03:28:07.712Z,66.50
2018-03-19T03:30:40.224Z,66.60
2018-03-19T03:33:12.784Z,66.70
2018-03-19T03:35:45.143Z,67.50
2018-03-19T03:38:18.407Z,67.40
2018-03-19T03:40:51.156Z,67.10
2018-03-19T03:43:23.683Z,66.10
2018-03-19T03:45:56.989Z,67.70
2018-03-19T03:48:30.313Z,67.00
2018-03-19T03:51:03.789Z,66.30
2018-03-19T03:53:36.496Z,66.40
2018-03-19T03:56:09.030Z,66.80
2018-03-19T03:58:43.124Z,66.20
2018-03-19T04:01:15.691Z,66.10
2018-03-19T04:03:48.115Z,66.00
2018-03-19T04:06:21.356Z,66.60
2018-03-19T04:08:54.124Z,66.40
2018-03-19T04:11:28.154Z,66.50
2018-03-19T04:14:01.229Z,66.20
2018-03-19T04:16:34.414Z,66.40
2018-03-19T04:19:07.675Z,67.20
2018-03-19T04:21:40.443Z,67.20
2018-03-19T04:24:12.991Z,67.90
2018-03-19T04:26:45.421Z,68.60
2018-03-19T04:29:17.995Z,67.50
2018-03-19T04:31:50.520Z,68.10
2018-03-19T04:34:23.030Z,67.80
2018-03-19T04:36:55.601Z,68.30
2018-03-19T04:39:28.755Z,67.90
2018-03-19T04:42:01.826Z,67.70
2018-03-19T04:44:35.136Z,68.30
2018-03-19T04:47:07.705Z,69.00
2018-03-19T04:49:41.013Z,68.90
2018-03-19T04:52:13.483Z,68.50
2018-03-19T04:54:47.639Z,68.50
2018-03-19T04:57:21.045Z,68.40
2018-03-19T04:59:53.810Z,67.50
2018-03-19T05:02:26.980Z,68.20
2018-03-19T05:05:00.497Z,68.70
2018-03-19T05:07:33.112Z,68.00
2018-03-19T05:10:05.763Z,67.90
2018-03-19T05:12:38.177Z,67.00
2018-03-19T05:15:10.757Z,67.30
2018-03-19T05:17:43.178Z,68.10
2018-03-19T05:20:15.585Z,66.90
2018-03-19T05:22:48.049Z,67.00
2018-03-19T05:25:21.340Z,67.80
2018-03-19T05:27:54.044Z,67.50
2018-03-19T05:30:26.621Z,68.30
2018-03-19T05:32:59.888Z,67.70
2018-03-19T05:35:32.470Z,68.10
2018-03-19T05:38:04.965Z,67.60
2018-03-19T05:40:37.655Z,67.90
2018-03-19T05:43:10.908Z,68.80
2018-03-19T05:45:43.656Z,67.60
2018-03-19T05:48:16.122Z,67.50
2018-03-19T05:50:48.579Z,67.00
2018-03-19T05:53:21.145Z,68.00
2018-03-19T05:55:53.792Z,67.60
2018-03-19T05:58:27.136Z,67.00
2018-03-19T06:00:59.659Z,67.60
2018-03-19T06:03:33.025Z,68.60
2018-03-19T06:06:05.609Z,68.00
2018-03-19T06:08:38.763Z,67.40
2018-03-19T06:11:11.395Z,67.30
2018-03-19T06:13:43.856Z,67.40
2018-03-19T06:16:16.339Z,67.00
2018-03-19T06:18:49.674Z,67.80
2018-03-19T06:21:22.252Z,67.70
2018-03-19T06:23:55.581Z,67.70
2018-03-19T06:26:28.843Z,67.70
2018-03-19T06:29:01.733Z,67.90
2018-03-19T06:31:35.996Z,68.20
2018-03-19T06:34:08.391Z,68.00
2018-03-19T06:36:41.100Z,67.30
2018-03-19T06:39:14.457Z,67.70
2018-03-19T06:41:47.370Z,68.00
2018-03-19T06:44:20.559Z,67.90
2018-03-19T06:46:53.163Z,67.90
2018-03-19T06:49:26.653Z,67.80
2018-03-19T06:52:00.784Z,68.40
2018-03-19T06:54:33.474Z,68.70
2018-03-19T06:57:06.010Z,68.80
2018-03-19T06:59:38.476Z,68.80
2018-03-19T07:02:10.952Z,68.20
2018-03-19T07:04:44.338Z,68.20
2018-03-19T07:07:17.002Z,68.00
2018-03-19T07:09:49.964Z,68.10
2018-03-19T07:12:23.515Z,68.20
2018-03-19T07:14:57.521Z,68.70
2018-03-19T07:17:30.216Z,68.60
2018-03-19T07:20:04.461Z,68.20
2018-03-19T07:22:37.896Z,68.40
2018-03-19T07:25:10.471Z,68.40
2018-03-19T07:27:43.774Z,68.20
2018-03-19T07:30:17.779Z,68.30
2018-03-19T07:32:51.122Z,68.00
2018-03-19T07:35:23.534Z,67.50
2018-03-19T07:37:57.692Z,67.70
2018-03-19T07:40:30.325Z,67.60
2018-03-19T07:43:02.964Z,68.10
2018-03-19T07:45:35.455Z,67.70
2018-03-19T07:48:08.866Z,68.10
2018-03-19T07:50:41.588Z,68.10
2018-03-19T07:53:14.000Z,68.80
2018-03-19T07:55:47.364Z,68.10
2018-03-19T07:58:19.831Z,69.00
2018-03-19T08:00:54.081Z,68.80
2018-03-19T08:03:26.740Z,68.30
2018-03-19T08:05:59.204Z,67.90
2018-03-19T08:08:31.841Z,68.30
2018-03-19T08:11:04.251Z,68.60
2018-03-19T08:13:37.480Z,68.00
2018-03-19T08:16:10.311Z,68.10
2018-03-19T08:18:42.912Z,67.30
2018-03-19T08:21:15.555Z,66.40
2018-03-19T08:23:48.905Z,65.90
2018-03-19T08:26:22.422Z,66.10
2018-03-19T08:28:55.193Z,66.20
2018-03-19T08:31:27.654Z,66.40
2018-03-19T08:34:00.130Z,66.70
2018-03-19T08:36:32.643Z,66.60
2018-03-19T08:39:06.097Z,67.00
2018-03-19T08:41:38.633Z,67.00
2018-03-19T08:44:12.734Z,67.40
2018-03-19T08:46:45.418Z,67.30
2018-03-19T08:49:17.874Z,66.70
2018-03-19T08:51:50.460Z,67.70
2018-03-19T08:54:22.807Z,67.20
2018-03-19T08:56:55.299Z,67.40
2018-03-19T08:59:28.054Z,68.50
2018-03-19T09:02:00.568Z,69.00
2018-03-19T09:04:33.091Z,69.00
2018-03-19T09:07:05.506Z,67.50
2018-03-19T09:09:38.065Z,67.50
2018-03-19T09:12:10.497Z,67.80
2018-03-19T09:14:43.103Z,67.80
2018-03-19T09:17:17.151Z,68.30
2018-03-19T09:19:49.987Z,68.50
2018-03-19T09:22:22.396Z,67.90
2018-03-19T09:24:55.742Z,66.60
2018-03-19T09:27:28.553Z,66.70
2018-03-19T09:30:00.987Z,66.70
2018-03-19T09:32:33.627Z,67.60
2018-03-19T09:35:07.755Z,66.90
2018-03-19T09:37:41.156Z,66.30
2018-03-19T09:40:13.968Z,66.20
2018-03-19T09:42:46.369Z,66.10
2018-03-19T09:45:18.827Z,66.20
2018-03-19T09:47:51.452Z,65.70
2018-03-19T09:50:24.750Z,65.60
2018-03-19T09:52:58.215Z,65.90
2018-03-19T09:55:30.631Z,65.90
2018-03-19T09:58:03.137Z,66.20
2018-03-19T10:00:36.347Z,64.70
2018-03-19T10:03:08.962Z,64.80
2018-03-19T10:05:42.290Z,64.40
2018-03-19T10:08:15.118Z,64.40
2018-03-19T10:10:48.476Z,65.00
2018-03-19T10:13:21.008Z,66.20
2018-03-19T10:15:53.480Z,65.20
2018-03-19T10:18:26.950Z,65.10
2018-03-19T10:20:59.311Z,65.30
2018-03-19T10:23:32.539Z,65.50
2018-03-19T10:26:05.296Z,65.70
2018-03-19T10:28:37.626Z,65.30
2018-03-19T10:31:10.330Z,65.50
2018-03-19T10:33:42.736Z,64.90
2018-03-19T10:36:15.206Z,64.90
2018-03-19T10:38:47.544Z,63.50
2018-03-19T10:41:20.936Z,63.80
2018-03-19T10:43:53.438Z,64.00
2018-03-19T10:46:26.019Z,64.20
2018-03-19T10:48:58.532Z,64.00
2018-03-19T10:51:31.045Z,63.90
2018-03-19T10:54:04.366Z,64.90
2018-03-19T10:56:37.004Z,65.20
2018-03-19T10:59:09.480Z,65.40
2018-03-19T11:01:42.899Z,63.90
2018-03-19T11:04:16.179Z,64.00
2018-03-19T11:09:49.821Z,63.90
2018-03-19T11:12:23.764Z,65.10
2018-03-19T11:14:56.367Z,64.90
2018-03-19T11:17:29.775Z,64.50
2018-03-19T11:20:03.183Z,63.70
2018-03-19T11:22:35.764Z,63.90
2018-03-19T11:25:09.015Z,65.10
2018-03-19T11:27:42.463Z,65.10
2018-03-19T11:30:14.808Z,64.90
2018-03-19T11:32:47.354Z,64.40
2018-03-19T11:35:19.754Z,64.90
2018-03-19T11:37:53.077Z,65.10
2018-03-19T11:40:26.657Z,64.80
2018-03-19T11:42:59.923Z,65.50
2018-03-19T11:45:33.482Z,64.80
2018-03-19T11:48:06.202Z,64.80
2018-03-19T11:50:39.440Z,65.40
2018-03-19T11:53:22.740Z,65.00
2018-03-19T11:55:55.248Z,65.10
2018-03-19T11:58:27.755Z,65.80
2018-03-19T12:01:00.243Z,63.70
2018-03-19T12:03:33.556Z,65.50
2018-03-19T12:06:06.783Z,65.20
2018-03-19T12:08:39.224Z,65.70
2018-03-19T12:11:11.704Z,65.80
2018-03-19T12:13:44.286Z,65.40
2018-03-19T12:16:17.422Z,65.40
2018-03-19T12:18:50.335Z,65.50
2018-03-19T12:21:23.865Z,65.70
2018-03-19T12:23:58.019Z,65.40
2018-03-19T12:26:41.540Z,65.50
2018-03-19T12:29:14.245Z,65.90
2018-03-19T12:31:46.766Z,65.50
2018-03-19T12:34:20.236Z,65.30
2018-03-19T12:36:53.719Z,65.20
2018-03-19T12:39:26.427Z,65.10
2018-03-19T12:41:58.804Z,65.40
2018-03-19T12:44:32.021Z,65.50
2018-03-19T12:47:04.757Z,65.40
2018-03-19T12:49:37.472Z,65.50
2018-03-19T12:52:10.731Z,65.40
2018-03-19T12:54:43.956Z,66.00
2018-03-19T12:57:16.472Z,66.40
2018-03-19T12:59:49.137Z,65.80
2018-03-19T13:02:22.511Z,65.80
2018-03-19T13:04:55.125Z,66.40
2018-03-19T13:07:28.645Z,65.70
2018-03-19T13:10:01.421Z,65.50
2018-03-19T13:12:33.944Z,66.00
2018-03-19T13:15:06.548Z,65.70
2018-03-19T13:17:40.029Z,65.80
2018-03-19T13:20:13.315Z,66.40
2018-03-19T13:22:46.586Z,64.00
2018-03-19T13:25:19.368Z,64.30
2018-03-19T13:27:52.035Z,64.90
2018-03-19T13:30:25.445Z,65.20
2018-03-19T13:32:58.844Z,65.00
2018-03-19T13:35:31.690Z,65.00
2018-03-19T13:38:04.082Z,65.80
2018-03-19T13:40:37.399Z,63.60
2018-03-19T13:43:09.998Z,63.80
2018-03-19T13:45:42.549Z,64.40
2018-03-19T13:48:15.759Z,65.00
2018-03-19T13:50:48.460Z,64.90
2018-03-19T13:53:22.474Z,63.30
2018-03-19T13:55:56.133Z,63.10
2018-03-19T13:58:28.997Z,63.00
2018-03-19T14:01:01.486Z,62.30
2018-03-19T14:03:34.014Z,61.60
2018-03-19T14:06:06.541Z,62.50
2018-03-19T14:08:39.668Z,63.60
2018-03-19T14:11:12.517Z,63.40
2018-03-19T14:13:46.369Z,65.20
2018-03-19T14:16:20.215Z,62.70
2018-03-19T14:18:52.964Z,62.50
2018-03-19T14:21:25.393Z,62.90
2018-03-19T14:23:58.813Z,63.60
2018-03-19T14:26:31.958Z,62.30
2018-03-19T14:29:04.607Z,63.90
2018-03-19T14:31:38.039Z,62.70
2018-03-19T14:34:11.505Z,64.50
2018-03-19T14:36:45.196Z,63.80
2018-03-19T14:39:17.818Z,63.80
2018-03-19T14:41:50.472Z,64.00
2018-03-19T14:44:22.875Z,64.10
2018-03-19T14:46:56.286Z,64.80
2018-03-19T14:49:29.534Z,64.70
2018-03-19T14:52:02.266Z,64.80
2018-03-19T14:54:35.528Z,65.10
2018-03-19T14:57:08.993Z,64.60
2018-03-19T14:59:41.377Z,65.10
2018-03-19T15:02:13.944Z,65.00
2018-03-19T15:04:46.493Z,65.00
2018-03-19T15:07:19.876Z,65.60
2018-03-19T15:09:52.453Z,66.00
2018-03-19T15:12:24.966Z,67.20
2018-03-19T15:14:58.171Z,67.30
2018-03-19T15:17:31.043Z,67.10
2018-03-19T15:20:04.177Z,67.10
2018-03-19T15:22:37.693Z,67.90
2018-03-19T15:25:11.254Z,67.80
2018-03-19T15:27:44.291Z,67.80
2018-03-19T15:30:17.287Z,68.60
2018-03-19T15:32:49.779Z,68.20
2018-03-19T15:35:22.284Z,69.00
2018-03-19T15:37:54.723Z,69.30
2018-03-19T15:40:27.581Z,68.70
2018-03-19T15:43:00.315Z,69.90
2018-03-19T15:45:33.647Z,69.10
2018-03-19T15:48:06.481Z,69.60
2018-03-19T15:50:39.151Z,70.70
2018-03-19T15:53:11.545Z,71.70
2018-03-19T15:55:45.023Z,73.10
2018-03-19T15:58:17.745Z,73.10
2018-03-19T16:00:50.328Z,72.40
2018-03-19T16:03:23.092Z,72.80
2018-03-19T16:05:55.414Z,74.00
2018-03-19T16:08:27.974Z,74.20
2018-03-19T16:11:01.363Z,74.60
2018-03-19T16:13:33.866Z,75.10
2018-03-19T16:16:07.198Z,74.40
2018-03-19T16:18:40.081Z,75.00
2018-03-19T16:21:14.304Z,74.90
2018-03-19T16:23:47.860Z,74.70
2018-03-19T16:26:21.669Z,74.70
2018-03-19T16:28:55.185Z,74.30
2018-03-19T16:31:28.001Z,74.30
2018-03-19T16:34:00.504Z,75.20
2018-03-19T16:36:33.057Z,75.20
2018-03-19T16:39:05.831Z,74.50
2018-03-19T16:41:38.508Z,73.50
2018-03-19T16:44:12.102Z,74.50
2018-03-19T16:46:46.018Z,74.50
2018-03-19T16:49:18.709Z,74.40
2018-03-19T16:51:52.035Z,74.90
2018-03-19T16:54:25.400Z,75.30
2018-03-19T16:56:58.548Z,75.00
2018-03-19T16:59:31.075Z,75.00
2018-03-19T17:02:03.685Z,75.80
2018-03-19T17:04:36.258Z,75.50
2018-03-19T17:07:10.341Z,74.20
2018-03-19T17:09:43.768Z,74.20
2018-03-19T17:12:16.569Z,74.30
2018-03-19T17:14:49.763Z,75.20
2018-03-19T17:17:23.092Z,75.70
2018-03-19T17:19:56.494Z,75.80
2018-03-19T17:22:29.418Z,75.80
2018-03-19T17:25:01.905Z,76.20
2018-03-19T17:27:35.284Z,76.00
2018-03-19T17:30:08.895Z,75.50
2018-03-19T17:32:41.409Z,75.70
2018-03-19T17:35:14.105Z,75.60
2018-03-19T17:37:47.372Z,75.10
2018-03-19T17:40:20.637Z,75.10
2018-03-19T17:42:54.747Z,76.50
2018-03-19T17:45:28.415Z,76.80
2018-03-19T17:48:01.807Z,76.80
2018-03-19T17:50:35.052Z,76.80
2018-03-19T17:53:07.452Z,77.20
2018-03-19T17:55:40.143Z,76.60
2018-03-19T17:58:14.243Z,77.20
2018-03-19T18:00:47.138Z,77.10
2018-03-19T18:03:19.657Z,77.40
2018-03-19T18:05:52.949Z,77.50
2018-03-19T18:08:25.550Z,77.50
2018-03-19T18:10:58.873Z,77.40
2018-03-19T18:13:32.355Z,77.40
2018-03-19T18:16:05.101Z,77.30
2018-03-19T18:18:37.840Z,77.60
2018-03-19T18:21:11.017Z,77.00
2018-03-19T18:23:46.156Z,77.00
2018-03-19T18:26:20.337Z,76.80
2018-03-19T18:28:54.486Z,76.80
2018-03-19T18:31:27.277Z,77.10
2018-03-19T18:34:03.356Z,77.30
2018-03-19T18:36:36.094Z,77.40
2018-03-19T18:39:09.518Z,77.10
2018-03-19T18:41:42.858Z,76.90
2018-03-19T18:44:15.593Z,77.30
2018-03-19T18:46:49.200Z,77.10
2018-03-19T18:49:23.387Z,77.30
2018-03-19T18:51:56.162Z,77.30
2018-03-19T18:54:30.392Z,77.10
2018-03-19T18:57:03.810Z,77.20
2018-03-19T18:59:37.369Z,77.30
2018-03-19T19:02:11.251Z,77.40
2018-03-19T19:04:44.367Z,77.00
2018-03-19T19:07:17.850Z,77.00
2018-03-19T19:09:51.062Z,77.00
2018-03-19T19:12:25.054Z,77.10
2018-03-19T19:14:58.294Z,77.00
2018-03-19T19:17:31.138Z,77.30
2018-03-19T19:20:04.603Z,77.20
2018-03-19T19:22:37.758Z,77.00
2018-03-19T19:25:11.542Z,77.30
2018-03-19T19:27:45.787Z,77.20
2018-03-19T19:30:18.428Z,77.30
2018-03-19T19:32:51.806Z,77.10
2018-03-19T19:35:25.262Z,77.10
2018-03-19T19:37:57.821Z,77.00
2018-03-19T19:40:30.272Z,77.30
2018-03-19T19:43:02.794Z,77.20
2018-03-19T19:45:36.991Z,76.80
2018-03-19T19:48:12.431Z,76.90
2018-03-19T19:50:45.787Z,77.30
2018-03-19T19:53:18.484Z,77.30
2018-03-19T19:55:52.740Z,77.60
2018-03-19T19:58:27.141Z,77.50
2018-03-19T20:01:00.319Z,77.90
2018-03-19T20:03:32.916Z,77.60
2018-03-19T20:06:05.575Z,77.50
2018-03-19T20:08:38.271Z,77.70
2018-03-19T20:11:11.740Z,77.70
2018-03-19T20:13:44.279Z,77.30
2018-03-19T20:16:17.895Z,78.00
2018-03-19T20:18:51.338Z,77.30
2018-03-19T20:21:25.509Z,77.40
2018-03-19T20:23:58.652Z,77.10
2018-03-19T20:26:32.031Z,77.70
2018-03-19T20:29:05.412Z,78.20
2018-03-19T20:31:38.811Z,77.40
2018-03-19T20:34:11.437Z,77.80
2018-03-19T20:36:44.703Z,77.10
2018-03-19T20:39:19.436Z,77.10
2018-03-19T20:41:52.822Z,77.10
2018-03-19T20:44:26.940Z,77.20
2018-03-19T20:46:59.618Z,77.30
2018-03-19T20:49:32.266Z,77.20
2018-03-19T20:52:05.443Z,77.10
2018-03-19T20:54:38.016Z,77.20
2018-03-19T20:57:10.663Z,76.90
2018-03-19T20:59:44.040Z,77.00
2018-03-19T21:02:18.824Z,77.40
2018-03-19T21:04:52.517Z,77.20
2018-03-19T21:07:25.533Z,77.10
2018-03-19T21:09:58.836Z,78.00
2018-03-19T21:12:33.676Z,77.00
2018-03-19T21:15:06.731Z,77.20
2018-03-19T21:17:39.430Z,77.10
2018-03-19T21:20:12.112Z,77.40
2018-03-19T21:22:45.538Z,77.80
2018-03-19T21:25:18.833Z,77.30
2018-03-19T21:27:52.730Z,77.40
2018-03-19T21:30:25.360Z,77.30
2018-03-19T21:32:58.598Z,76.60
2018-03-19T21:35:31.766Z,76.40
2018-03-19T21:38:04.222Z,76.70
2018-03-19T21:40:36.833Z,76.60
2018-03-19T21:43:09.404Z,77.10
2018-03-19T21:45:42.054Z,77.40
2018-03-19T21:48:14.713Z,77.20
2018-03-19T21:50:47.258Z,77.10
2018-03-19T21:53:20.571Z,77.00
2018-03-19T21:55:53.753Z,77.50
2018-03-19T21:58:27.537Z,77.70
2018-03-19T22:01:00.092Z,77.90
2018-03-19T22:03:32.734Z,77.80
2018-03-19T22:06:05.267Z,77.20
2018-03-19T22:08:38.727Z,77.30
2018-03-19T22:11:11.356Z,77.20
2018-03-19T22:13:44.663Z,77.10
2018-03-19T22:16:17.123Z,77.20
2018-03-19T22:18:49.688Z,77.30
2018-03-19T22:21:22.327Z,77.00
2018-03-19T22:23:55.041Z,77.10
2018-03-19T22:26:28.319Z,76.80
2018-03-19T22:29:00.990Z,75.90
2018-03-19T22:31:33.384Z,76.80
2018-03-19T22:34:06.909Z,76.60
2018-03-19T22:36:39.741Z,76.50
2018-03-19T22:39:13.089Z,76.60
2018-03-19T22:41:46.091Z,77.10
2018-03-19T22:44:18.616Z,76.60
2018-03-19T22:46:51.106Z,77.10
2018-03-19T22:49:24.618Z,77.20
2018-03-19T22:51:57.323Z,77.10
2018-03-19T22:54:29.735Z,77.80
2018-03-19T22:57:02.273Z,77.80
2018-03-19T22:59:34.862Z,77.90
2018-03-19T23:02:07.332Z,77.60
2018-03-19T23:04:56.062Z,77.50
2018-03-19T23:07:28.704Z,77.50
2018-03-19T23:10:02.373Z,77.60
2018-03-19T23:12:35.319Z,77.60
2018-03-19T23:15:08.612Z,77.00
2018-03-19T23:17:41.086Z,77.60
2018-03-19T23:20:13.593Z,77.30
2018-03-19T23:22:46.823Z,77.20
2018-03-19T23:25:19.524Z,77.30
2018-03-19T23:27:52.029Z,77.70
2018-03-19T23:30:24.464Z,77.60
2018-03-19T23:32:57.115Z,77.50
2018-03-19T23:35:30.306Z,77.50
2018-03-19T23:38:02.796Z,77.40
2018-03-19T23:40:36.957Z,76.90
2018-03-19T23:43:09.723Z,76.90
2018-03-19T23:45:42.153Z,76.90
2018-03-19T23:48:14.594Z,76.90
2018-03-19T23:50:47.228Z,76.60
2018-03-19T23:53:19.750Z,77.00
2018-03-19T23:55:52.181Z,77.50
2018-03-19T23:58:25.487Z,76.50
